sensor_id;sensor_type;location;lat;lon;timestamp;P1;durP1;ratioP1;P2;durP2;ratioP2
11964;SDS011;6042;41.326;19.826;2023-06-22T00:01:35;15.87;;;11.67;;
11964;SDS011;6042;41.326;19.826;2023-06-22T00:04:03;16.07;;;11.80;;
11964;SDS011;6042;41.326;19.826;2023-06-22T00:06:32;12.73;;;11.53;;
11964;SDS011;6042;41.326;19.826;2023-06-22T00:09:00;16.50;;;12.23;;
11964;SDS011;6042;41.326;19.826;2023-06-22T00:11:29;31.03;;;15.07;;
11964;SDS011;6042;41.326;19.826;2023-06-22T00:14:00;24.60;;;14.00;;
11964;SDS011;6042;41.326;19.826;2023-06-22T00:16:30;22.77;;;12.43;;
11964;SDS011;6042;41.326;19.826;2023-06-22T00:19:00;15.30;;;13.50;;
11964;SDS011;6042;41.326;19.826;2023-06-22T00:21:29;17.17;;;12.73;;
11964;SDS011;6042;41.326;19.826;2023-06-22T00:23:58;15.47;;;12.30;;
11964;SDS011;6042;41.326;19.826;2023-06-22T00:26:26;23.93;;;13.37;;
11964;SDS011;6042;41.326;19.826;2023-06-22T00:28:57;23.70;;;12.87;;
11964;SDS011;6042;41.326;19.826;2023-06-22T00:31:25;22.77;;;12.73;;
11964;SDS011;6042;41.326;19.826;2023-06-22T00:33:54;26.80;;;15.10;;
11964;SDS011;6042;41.326;19.826;2023-06-22T00:36:24;13.60;;;12.10;;
11964;SDS011;6042;41.326;19.826;2023-06-22T00:38:56;15.63;;;12.80;;
11964;SDS011;6042;41.326;19.826;2023-06-22T00:41:24;16.33;;;12.50;;
11964;SDS011;6042;41.326;19.826;2023-06-22T00:43:55;15.07;;;12.33;;
11964;SDS011;6042;41.326;19.826;2023-06-22T00:46:23;36.40;;;14.27;;
11964;SDS011;6042;41.326;19.826;2023-06-22T00:48:52;24.87;;;12.00;;
11964;SDS011;6042;41.326;19.826;2023-06-22T00:51:25;16.53;;;12.27;;
11964;SDS011;6042;41.326;19.826;2023-06-22T00:53:53;21.27;;;13.27;;
11964;SDS011;6042;41.326;19.826;2023-06-22T00:56:22;23.30;;;12.43;;
11964;SDS011;6042;41.326;19.826;2023-06-22T00:58:52;16.20;;;11.87;;
11964;SDS011;6042;41.326;19.826;2023-06-22T01:01:21;13.57;;;12.17;;
11964;SDS011;6042;41.326;19.826;2023-06-22T01:03:50;15.53;;;11.97;;
11964;SDS011;6042;41.326;19.826;2023-06-22T01:06:21;13.70;;;11.20;;
11964;SDS011;6042;41.326;19.826;2023-06-22T01:09:02;13.47;;;11.60;;
11964;SDS011;6042;41.326;19.826;2023-06-22T01:11:44;13.43;;;12.03;;
11964;SDS011;6042;41.326;19.826;2023-06-22T01:14:15;14.77;;;12.17;;
11964;SDS011;6042;41.326;19.826;2023-06-22T01:16:50;13.83;;;12.43;;
11964;SDS011;6042;41.326;19.826;2023-06-22T01:19:28;13.33;;;11.53;;
11964;SDS011;6042;41.326;19.826;2023-06-22T01:22:06;15.47;;;12.03;;
11964;SDS011;6042;41.326;19.826;2023-06-22T01:24:47;13.10;;;11.67;;
11964;SDS011;6042;41.326;19.826;2023-06-22T01:27:28;14.73;;;11.57;;
11964;SDS011;6042;41.326;19.826;2023-06-22T01:30:02;12.83;;;11.53;;
11964;SDS011;6042;41.326;19.826;2023-06-22T01:32:34;13.27;;;11.73;;
11964;SDS011;6042;41.326;19.826;2023-06-22T01:35:05;12.53;;;11.40;;
11964;SDS011;6042;41.326;19.826;2023-06-22T01:37:36;12.90;;;11.30;;
11964;SDS011;6042;41.326;19.826;2023-06-22T01:40:05;14.67;;;11.80;;
11964;SDS011;6042;41.326;19.826;2023-06-22T01:42:36;12.70;;;11.50;;
11964;SDS011;6042;41.326;19.826;2023-06-22T01:45:08;12.77;;;11.27;;
11964;SDS011;6042;41.326;19.826;2023-06-22T01:47:39;12.70;;;11.40;;
11964;SDS011;6042;41.326;19.826;2023-06-22T01:50:08;12.60;;;11.30;;
11964;SDS011;6042;41.326;19.826;2023-06-22T01:52:37;12.13;;;11.10;;
11964;SDS011;6042;41.326;19.826;2023-06-22T01:55:06;15.57;;;11.93;;
11964;SDS011;6042;41.326;19.826;2023-06-22T01:57:35;16.07;;;12.20;;
11964;SDS011;6042;41.326;19.826;2023-06-22T02:00:06;12.37;;;11.13;;
11964;SDS011;6042;41.326;19.826;2023-06-22T02:02:43;22.13;;;12.90;;
11964;SDS011;6042;41.326;19.826;2023-06-22T02:05:18;16.40;;;11.87;;
11964;SDS011;6042;41.326;19.826;2023-06-22T02:07:52;13.50;;;12.20;;
11964;SDS011;6042;41.326;19.826;2023-06-22T02:10:30;13.17;;;11.23;;
11964;SDS011;6042;41.326;19.826;2023-06-22T02:13:01;13.03;;;11.90;;
11964;SDS011;6042;41.326;19.826;2023-06-22T02:15:33;12.63;;;11.47;;
11964;SDS011;6042;41.326;19.826;2023-06-22T02:18:02;12.50;;;11.30;;
11964;SDS011;6042;41.326;19.826;2023-06-22T02:20:31;12.87;;;11.67;;
11964;SDS011;6042;41.326;19.826;2023-06-22T02:23:01;12.93;;;11.57;;
11964;SDS011;6042;41.326;19.826;2023-06-22T02:25:34;14.47;;;11.67;;
11964;SDS011;6042;41.326;19.826;2023-06-22T02:28:03;13.30;;;12.00;;
11964;SDS011;6042;41.326;19.826;2023-06-22T02:30:33;12.77;;;11.57;;
11964;SDS011;6042;41.326;19.826;2023-06-22T02:33:02;13.50;;;11.90;;
11964;SDS011;6042;41.326;19.826;2023-06-22T02:35:31;13.87;;;12.40;;
11964;SDS011;6042;41.326;19.826;2023-06-22T02:38:02;13.70;;;12.47;;
11964;SDS011;6042;41.326;19.826;2023-06-22T02:40:32;13.10;;;11.80;;
11964;SDS011;6042;41.326;19.826;2023-06-22T02:43:00;13.53;;;12.23;;
11964;SDS011;6042;41.326;19.826;2023-06-22T02:45:29;11.60;;;10.60;;
11964;SDS011;6042;41.326;19.826;2023-06-22T02:48:00;12.23;;;10.97;;
11964;SDS011;6042;41.326;19.826;2023-06-22T02:50:28;11.97;;;10.70;;
11964;SDS011;6042;41.326;19.826;2023-06-22T02:52:58;11.20;;;10.17;;
11964;SDS011;6042;41.326;19.826;2023-06-22T02:55:28;12.20;;;11.07;;
11964;SDS011;6042;41.326;19.826;2023-06-22T02:57:58;11.53;;;10.43;;
11964;SDS011;6042;41.326;19.826;2023-06-22T03:00:33;12.77;;;11.33;;
11964;SDS011;6042;41.326;19.826;2023-06-22T03:03:03;13.20;;;10.43;;
11964;SDS011;6042;41.326;19.826;2023-06-22T03:05:32;11.83;;;10.77;;
11964;SDS011;6042;41.326;19.826;2023-06-22T03:08:02;12.00;;;10.90;;
11964;SDS011;6042;41.326;19.826;2023-06-22T03:10:33;12.80;;;10.70;;
11964;SDS011;6042;41.326;19.826;2023-06-22T03:13:01;11.80;;;10.70;;
11964;SDS011;6042;41.326;19.826;2023-06-22T03:15:30;11.30;;;10.27;;
11964;SDS011;6042;41.326;19.826;2023-06-22T03:17:58;11.10;;;10.17;;
11964;SDS011;6042;41.326;19.826;2023-06-22T03:20:28;11.40;;;10.30;;
11964;SDS011;6042;41.326;19.826;2023-06-22T03:23:00;10.80;;;9.90;;
11964;SDS011;6042;41.326;19.826;2023-06-22T03:25:28;10.90;;;10.10;;
11964;SDS011;6042;41.326;19.826;2023-06-22T03:27:57;10.77;;;9.67;;
11964;SDS011;6042;41.326;19.826;2023-06-22T03:30:26;10.83;;;9.83;;
11964;SDS011;6042;41.326;19.826;2023-06-22T03:32:54;11.57;;;10.37;;
11964;SDS011;6042;41.326;19.826;2023-06-22T03:35:25;10.77;;;9.77;;
11964;SDS011;6042;41.326;19.826;2023-06-22T03:37:56;10.43;;;9.47;;
11964;SDS011;6042;41.326;19.826;2023-06-22T03:40:24;11.23;;;10.23;;
11964;SDS011;6042;41.326;19.826;2023-06-22T03:42:55;10.97;;;9.90;;
11964;SDS011;6042;41.326;19.826;2023-06-22T03:45:24;11.37;;;10.03;;
11964;SDS011;6042;41.326;19.826;2023-06-22T03:47:52;11.67;;;10.60;;
11964;SDS011;6042;41.326;19.826;2023-06-22T03:50:21;11.37;;;10.27;;
11964;SDS011;6042;41.326;19.826;2023-06-22T03:52:49;11.37;;;10.27;;
11964;SDS011;6042;41.326;19.826;2023-06-22T03:55:20;11.40;;;10.30;;
11964;SDS011;6042;41.326;19.826;2023-06-22T03:57:49;10.57;;;9.53;;
11964;SDS011;6042;41.326;19.826;2023-06-22T04:00:17;11.30;;;10.30;;
11964;SDS011;6042;41.326;19.826;2023-06-22T04:02:46;11.13;;;10.07;;
11964;SDS011;6042;41.326;19.826;2023-06-22T04:05:14;11.67;;;10.67;;
11964;SDS011;6042;41.326;19.826;2023-06-22T04:07:43;11.57;;;10.50;;
11964;SDS011;6042;41.326;19.826;2023-06-22T04:10:12;11.20;;;10.13;;
11964;SDS011;6042;41.326;19.826;2023-06-22T04:12:53;11.23;;;9.50;;
11964;SDS011;6042;41.326;19.826;2023-06-22T04:15:22;11.70;;;10.50;;
11964;SDS011;6042;41.326;19.826;2023-06-22T04:17:51;10.47;;;9.50;;
11964;SDS011;6042;41.326;19.826;2023-06-22T04:20:19;10.50;;;9.63;;
11964;SDS011;6042;41.326;19.826;2023-06-22T04:22:48;11.87;;;10.67;;
11964;SDS011;6042;41.326;19.826;2023-06-22T04:25:16;12.00;;;10.80;;
11964;SDS011;6042;41.326;19.826;2023-06-22T04:27:45;11.87;;;10.67;;
11964;SDS011;6042;41.326;19.826;2023-06-22T04:30:16;11.30;;;10.17;;
11964;SDS011;6042;41.326;19.826;2023-06-22T04:32:44;12.63;;;10.73;;
11964;SDS011;6042;41.326;19.826;2023-06-22T04:35:23;13.53;;;10.23;;
11964;SDS011;6042;41.326;19.826;2023-06-22T04:37:52;13.63;;;10.03;;
11964;SDS011;6042;41.326;19.826;2023-06-22T04:40:23;14.67;;;10.43;;
11964;SDS011;6042;41.326;19.826;2023-06-22T04:42:51;14.23;;;9.67;;
11964;SDS011;6042;41.326;19.826;2023-06-22T04:45:22;12.67;;;10.50;;
11964;SDS011;6042;41.326;19.826;2023-06-22T04:47:50;14.57;;;10.97;;
11964;SDS011;6042;41.326;19.826;2023-06-22T04:57:26;13.37;;;11.27;;
11964;SDS011;6042;41.326;19.826;2023-06-22T04:59:59;11.50;;;10.40;;
11964;SDS011;6042;41.326;19.826;2023-06-22T05:02:39;16.63;;;10.93;;
11964;SDS011;6042;41.326;19.826;2023-06-22T05:05:08;18.60;;;11.20;;
11964;SDS011;6042;41.326;19.826;2023-06-22T05:07:41;11.90;;;10.80;;
11964;SDS011;6042;41.326;19.826;2023-06-22T05:10:11;11.07;;;10.07;;
11964;SDS011;6042;41.326;19.826;2023-06-22T05:12:40;13.17;;;10.30;;
11964;SDS011;6042;41.326;19.826;2023-06-22T05:15:09;21.27;;;12.90;;
11964;SDS011;6042;41.326;19.826;2023-06-22T05:17:38;13.17;;;11.10;;
11964;SDS011;6042;41.326;19.826;2023-06-22T05:20:10;12.80;;;10.60;;
11964;SDS011;6042;41.326;19.826;2023-06-22T05:22:39;12.13;;;10.80;;
11964;SDS011;6042;41.326;19.826;2023-06-22T05:25:10;12.70;;;11.13;;
11964;SDS011;6042;41.326;19.826;2023-06-22T05:27:40;14.60;;;11.27;;
11964;SDS011;6042;41.326;19.826;2023-06-22T05:30:10;15.97;;;11.10;;
11964;SDS011;6042;41.326;19.826;2023-06-22T05:32:40;12.83;;;10.07;;
11964;SDS011;6042;41.326;19.826;2023-06-22T05:35:11;11.20;;;9.93;;
11964;SDS011;6042;41.326;19.826;2023-06-22T05:37:40;11.97;;;9.50;;
11964;SDS011;6042;41.326;19.826;2023-06-22T05:40:09;13.87;;;10.00;;
11964;SDS011;6042;41.326;19.826;2023-06-22T05:42:38;14.23;;;9.93;;
11964;SDS011;6042;41.326;19.826;2023-06-22T05:45:07;12.33;;;9.63;;
11964;SDS011;6042;41.326;19.826;2023-06-22T05:47:36;10.15;;;9.20;;
11964;SDS011;6042;41.326;19.826;2023-06-22T05:50:07;12.13;;;10.87;;
11964;SDS011;6042;41.326;19.826;2023-06-22T05:52:53;12.13;;;10.07;;
11964;SDS011;6042;41.326;19.826;2023-06-22T05:55:21;13.13;;;10.20;;
11964;SDS011;6042;41.326;19.826;2023-06-22T05:57:50;12.60;;;9.80;;
11964;SDS011;6042;41.326;19.826;2023-06-22T06:00:18;12.57;;;10.13;;
11964;SDS011;6042;41.326;19.826;2023-06-22T06:02:49;16.13;;;11.00;;
11964;SDS011;6042;41.326;19.826;2023-06-22T06:05:19;11.63;;;9.20;;
11964;SDS011;6042;41.326;19.826;2023-06-22T06:07:50;12.30;;;9.87;;
11964;SDS011;6042;41.326;19.826;2023-06-22T06:10:19;11.97;;;9.90;;
11964;SDS011;6042;41.326;19.826;2023-06-22T06:12:48;14.23;;;9.63;;
11964;SDS011;6042;41.326;19.826;2023-06-22T06:15:16;11.68;;;9.48;;
11964;SDS011;6042;41.326;19.826;2023-06-22T06:17:45;11.88;;;9.30;;
11964;SDS011;6042;41.326;19.826;2023-06-22T06:20:14;13.38;;;10.82;;
11964;SDS011;6042;41.326;19.826;2023-06-22T06:22:44;12.48;;;9.90;;
11964;SDS011;6042;41.326;19.826;2023-06-22T06:25:13;10.90;;;9.38;;
11964;SDS011;6042;41.326;19.826;2023-06-22T06:27:43;10.63;;;9.57;;
11964;SDS011;6042;41.326;19.826;2023-06-22T06:30:12;13.80;;;9.82;;
11964;SDS011;6042;41.326;19.826;2023-06-22T06:32:42;12.73;;;10.00;;
11964;SDS011;6042;41.326;19.826;2023-06-22T06:35:13;14.45;;;9.65;;
11964;SDS011;6042;41.326;19.826;2023-06-22T06:37:45;15.05;;;9.50;;
11964;SDS011;6042;41.326;19.826;2023-06-22T06:40:16;14.13;;;9.77;;
11964;SDS011;6042;41.326;19.826;2023-06-22T06:42:46;10.85;;;9.85;;
11964;SDS011;6042;41.326;19.826;2023-06-22T06:45:17;10.50;;;9.38;;
11964;SDS011;6042;41.326;19.826;2023-06-22T06:47:49;13.02;;;10.57;;
11964;SDS011;6042;41.326;19.826;2023-06-22T06:50:19;11.98;;;10.15;;
11964;SDS011;6042;41.326;19.826;2023-06-22T06:52:49;10.32;;;9.20;;
11964;SDS011;6042;41.326;19.826;2023-06-22T06:55:17;11.82;;;9.30;;
11964;SDS011;6042;41.326;19.826;2023-06-22T06:57:47;16.30;;;10.50;;
11964;SDS011;6042;41.326;19.826;2023-06-22T07:00:16;10.32;;;8.57;;
11964;SDS011;6042;41.326;19.826;2023-06-22T07:02:46;9.73;;;8.90;;
11964;SDS011;6042;41.326;19.826;2023-06-22T07:05:15;10.45;;;9.27;;
11964;SDS011;6042;41.326;19.826;2023-06-22T07:07:44;8.85;;;8.02;;
11964;SDS011;6042;41.326;19.826;2023-06-22T07:10:13;12.50;;;9.57;;
11964;SDS011;6042;41.326;19.826;2023-06-22T07:12:43;11.57;;;9.60;;
11964;SDS011;6042;41.326;19.826;2023-06-22T07:15:11;11.50;;;9.85;;
11964;SDS011;6042;41.326;19.826;2023-06-22T07:17:40;13.20;;;11.13;;
11964;SDS011;6042;41.326;19.826;2023-06-22T07:20:09;16.70;;;11.35;;
11964;SDS011;6042;41.326;19.826;2023-06-22T07:22:40;17.23;;;10.85;;
11964;SDS011;6042;41.326;19.826;2023-06-22T07:25:10;12.38;;;10.73;;
11964;SDS011;6042;41.326;19.826;2023-06-22T07:27:47;18.77;;;10.88;;
11964;SDS011;6042;41.326;19.826;2023-06-22T07:30:25;17.27;;;10.25;;
11964;SDS011;6042;41.326;19.826;2023-06-22T07:32:55;11.90;;;10.20;;
11964;SDS011;6042;41.326;19.826;2023-06-22T07:35:24;11.77;;;10.27;;
11964;SDS011;6042;41.326;19.826;2023-06-22T07:37:52;19.23;;;11.15;;
11964;SDS011;6042;41.326;19.826;2023-06-22T07:40:22;11.95;;;10.32;;
11964;SDS011;6042;41.326;19.826;2023-06-22T07:42:51;12.35;;;10.13;;
11964;SDS011;6042;41.326;19.826;2023-06-22T07:45:20;15.15;;;10.77;;
11964;SDS011;6042;41.326;19.826;2023-06-22T07:47:49;13.75;;;11.38;;
11964;SDS011;6042;41.326;19.826;2023-06-22T07:50:17;12.65;;;10.95;;
11964;SDS011;6042;41.326;19.826;2023-06-22T07:52:46;13.88;;;10.18;;
11964;SDS011;6042;41.326;19.826;2023-06-22T07:55:16;15.70;;;10.98;;
11964;SDS011;6042;41.326;19.826;2023-06-22T07:57:46;17.17;;;11.27;;
11964;SDS011;6042;41.326;19.826;2023-06-22T08:00:17;17.77;;;11.65;;
11964;SDS011;6042;41.326;19.826;2023-06-22T08:02:47;17.30;;;10.95;;
11964;SDS011;6042;41.326;19.826;2023-06-22T08:05:16;15.02;;;11.60;;
11964;SDS011;6042;41.326;19.826;2023-06-22T08:07:48;12.80;;;11.00;;
11964;SDS011;6042;41.326;19.826;2023-06-22T08:10:17;14.50;;;11.38;;
11964;SDS011;6042;41.326;19.826;2023-06-22T08:12:46;16.42;;;12.13;;
11964;SDS011;6042;41.326;19.826;2023-06-22T08:15:15;15.02;;;11.73;;
11964;SDS011;6042;41.326;19.826;2023-06-22T08:17:45;13.95;;;11.32;;
11964;SDS011;6042;41.326;19.826;2023-06-22T08:20:14;13.38;;;12.07;;
11964;SDS011;6042;41.326;19.826;2023-06-22T08:22:42;14.13;;;10.77;;
11964;SDS011;6042;41.326;19.826;2023-06-22T08:25:11;12.23;;;10.90;;
11964;SDS011;6042;41.326;19.826;2023-06-22T08:27:44;12.85;;;10.63;;
11964;SDS011;6042;41.326;19.826;2023-06-22T08:30:13;11.82;;;10.02;;
11964;SDS011;6042;41.326;19.826;2023-06-22T08:32:44;11.85;;;8.98;;
11964;SDS011;6042;41.326;19.826;2023-06-22T08:35:13;9.20;;;8.30;;
11964;SDS011;6042;41.326;19.826;2023-06-22T08:37:41;9.82;;;8.32;;
11964;SDS011;6042;41.326;19.826;2023-06-22T08:40:12;12.77;;;9.32;;
11964;SDS011;6042;41.326;19.826;2023-06-22T08:42:40;9.85;;;8.75;;
11964;SDS011;6042;41.326;19.826;2023-06-22T08:45:09;13.75;;;9.23;;
11964;SDS011;6042;41.326;19.826;2023-06-22T08:47:38;11.15;;;8.93;;
11964;SDS011;6042;41.326;19.826;2023-06-22T08:50:09;11.63;;;9.43;;
11964;SDS011;6042;41.326;19.826;2023-06-22T08:52:40;11.73;;;8.73;;
11964;SDS011;6042;41.326;19.826;2023-06-22T08:55:09;9.02;;;8.15;;
11964;SDS011;6042;41.326;19.826;2023-06-22T08:57:38;9.45;;;7.35;;
11964;SDS011;6042;41.326;19.826;2023-06-22T09:00:07;9.65;;;8.10;;
11964;SDS011;6042;41.326;19.826;2023-06-22T09:02:43;8.43;;;7.22;;
11964;SDS011;6042;41.326;19.826;2023-06-22T09:05:13;8.60;;;7.60;;
11964;SDS011;6042;41.326;19.826;2023-06-22T09:07:43;8.52;;;7.57;;
11964;SDS011;6042;41.326;19.826;2023-06-22T09:10:12;9.88;;;7.38;;
11964;SDS011;6042;41.326;19.826;2023-06-22T09:12:41;10.20;;;7.68;;
11964;SDS011;6042;41.326;19.826;2023-06-22T09:15:10;9.93;;;7.05;;
11964;SDS011;6042;41.326;19.826;2023-06-22T09:17:43;7.85;;;7.05;;
11964;SDS011;6042;41.326;19.826;2023-06-22T09:20:15;9.68;;;7.40;;
11964;SDS011;6042;41.326;19.826;2023-06-22T09:22:43;9.48;;;6.88;;
11964;SDS011;6042;41.326;19.826;2023-06-22T09:25:11;9.30;;;6.95;;
11964;SDS011;6042;41.326;19.826;2023-06-22T09:27:40;11.90;;;7.47;;
11964;SDS011;6042;41.326;19.826;2023-06-22T09:30:08;9.55;;;6.95;;
11964;SDS011;6042;41.326;19.826;2023-06-22T09:32:37;7.57;;;6.88;;
11964;SDS011;6042;41.326;19.826;2023-06-22T09:35:06;10.15;;;7.15;;
11964;SDS011;6042;41.326;19.826;2023-06-22T09:37:40;9.77;;;7.72;;
11964;SDS011;6042;41.326;19.826;2023-06-22T09:40:09;10.07;;;8.05;;
11964;SDS011;6042;41.326;19.826;2023-06-22T09:42:41;8.02;;;7.20;;
11964;SDS011;6042;41.326;19.826;2023-06-22T09:45:09;13.02;;;7.47;;
11964;SDS011;6042;41.326;19.826;2023-06-22T09:47:38;10.38;;;7.82;;
11964;SDS011;6042;41.326;19.826;2023-06-22T09:50:07;8.77;;;7.45;;
11964;SDS011;6042;41.326;19.826;2023-06-22T09:52:36;10.32;;;7.82;;
11964;SDS011;6042;41.326;19.826;2023-06-22T09:55:09;7.75;;;7.05;;
11964;SDS011;6042;41.326;19.826;2023-06-22T09:57:37;10.18;;;7.85;;
11964;SDS011;6042;41.326;19.826;2023-06-22T10:00:06;7.75;;;7.05;;
11964;SDS011;6042;41.326;19.826;2023-06-22T10:02:38;10.40;;;7.55;;
11964;SDS011;6042;41.326;19.826;2023-06-22T10:05:07;11.00;;;8.10;;
11964;SDS011;6042;41.326;19.826;2023-06-22T10:07:37;8.50;;;7.57;;
11964;SDS011;6042;41.326;19.826;2023-06-22T10:10:12;9.75;;;7.45;;
11964;SDS011;6042;41.326;19.826;2023-06-22T10:12:42;8.30;;;7.60;;
11964;SDS011;6042;41.326;19.826;2023-06-22T10:15:15;9.25;;;7.63;;
11964;SDS011;6042;41.326;19.826;2023-06-22T10:17:44;11.30;;;7.70;;
11964;SDS011;6042;41.326;19.826;2023-06-22T10:20:13;8.80;;;8.00;;
11964;SDS011;6042;41.326;19.826;2023-06-22T10:22:42;9.05;;;7.93;;
11964;SDS011;6042;41.326;19.826;2023-06-22T10:25:14;10.63;;;8.07;;
11964;SDS011;6042;41.326;19.826;2023-06-22T10:27:43;8.63;;;7.80;;
11964;SDS011;6042;41.326;19.826;2023-06-22T10:30:11;9.55;;;7.90;;
11964;SDS011;6042;41.326;19.826;2023-06-22T10:32:40;11.82;;;7.93;;
11964;SDS011;6042;41.326;19.826;2023-06-22T10:35:10;8.52;;;7.68;;
11964;SDS011;6042;41.326;19.826;2023-06-22T10:37:41;10.85;;;8.38;;
11964;SDS011;6042;41.326;19.826;2023-06-22T10:40:10;14.20;;;8.60;;
11964;SDS011;6042;41.326;19.826;2023-06-22T10:42:41;8.98;;;8.15;;
11964;SDS011;6042;41.326;19.826;2023-06-22T10:45:10;10.88;;;8.20;;
11964;SDS011;6042;41.326;19.826;2023-06-22T10:47:38;9.77;;;8.07;;
11964;SDS011;6042;41.326;19.826;2023-06-22T10:50:09;10.25;;;8.02;;
11964;SDS011;6042;41.326;19.826;2023-06-22T10:52:38;7.75;;;7.05;;
11964;SDS011;6042;41.326;19.826;2023-06-22T10:55:08;8.52;;;7.70;;
11964;SDS011;6042;41.326;19.826;2023-06-22T10:57:38;10.60;;;7.78;;
11964;SDS011;6042;41.326;19.826;2023-06-22T11:00:11;11.98;;;7.80;;
11964;SDS011;6042;41.326;19.826;2023-06-22T11:02:40;11.45;;;7.85;;
11964;SDS011;6042;41.326;19.826;2023-06-22T11:05:09;9.35;;;7.53;;
11964;SDS011;6042;41.326;19.826;2023-06-22T11:07:37;9.85;;;7.43;;
11964;SDS011;6042;41.326;19.826;2023-06-22T11:10:14;8.30;;;7.50;;
11964;SDS011;6042;41.326;19.826;2023-06-22T11:12:45;7.85;;;6.93;;
11964;SDS011;6042;41.326;19.826;2023-06-22T11:15:13;8.60;;;7.60;;
11964;SDS011;6042;41.326;19.826;2023-06-22T11:17:42;9.30;;;7.95;;
11964;SDS011;6042;41.326;19.826;2023-06-22T11:20:11;8.45;;;7.60;;
11964;SDS011;6042;41.326;19.826;2023-06-22T11:22:40;8.77;;;7.63;;
11964;SDS011;6042;41.326;19.826;2023-06-22T11:25:08;8.13;;;7.43;;
11964;SDS011;6042;41.326;19.826;2023-06-22T11:27:38;9.75;;;7.80;;
11964;SDS011;6042;41.326;19.826;2023-06-22T11:30:08;8.63;;;7.82;;
11964;SDS011;6042;41.326;19.826;2023-06-22T11:32:37;11.20;;;8.15;;
11964;SDS011;6042;41.326;19.826;2023-06-22T11:35:06;9.43;;;8.50;;
11964;SDS011;6042;41.326;19.826;2023-06-22T11:37:35;10.85;;;8.13;;
11964;SDS011;6042;41.326;19.826;2023-06-22T11:40:03;8.70;;;7.70;;
11964;SDS011;6042;41.326;19.826;2023-06-22T11:42:36;8.73;;;7.80;;
11964;SDS011;6042;41.326;19.826;2023-06-22T11:45:06;9.23;;;8.30;;
11964;SDS011;6042;41.326;19.826;2023-06-22T11:47:37;9.25;;;8.00;;
11964;SDS011;6042;41.326;19.826;2023-06-22T11:50:06;12.38;;;7.78;;
11964;SDS011;6042;41.326;19.826;2023-06-22T11:52:35;8.82;;;7.93;;
11964;SDS011;6042;41.326;19.826;2023-06-22T11:55:04;10.20;;;7.80;;
11964;SDS011;6042;41.326;19.826;2023-06-22T11:57:34;11.75;;;8.13;;
11964;SDS011;6042;41.326;19.826;2023-06-22T12:00:04;11.95;;;8.05;;
11964;SDS011;6042;41.326;19.826;2023-06-22T12:02:45;10.07;;;7.75;;
11964;SDS011;6042;41.326;19.826;2023-06-22T12:05:13;9.55;;;7.53;;
11964;SDS011;6042;41.326;19.826;2023-06-22T12:07:42;9.35;;;7.55;;
11964;SDS011;6042;41.326;19.826;2023-06-22T12:10:10;10.05;;;7.85;;
11964;SDS011;6042;41.326;19.826;2023-06-22T12:12:39;9.15;;;7.80;;
11964;SDS011;6042;41.326;19.826;2023-06-22T12:15:08;10.05;;;7.75;;
11964;SDS011;6042;41.326;19.826;2023-06-22T12:17:37;13.38;;;8.98;;
11964;SDS011;6042;41.326;19.826;2023-06-22T12:20:08;7.97;;;7.38;;
11964;SDS011;6042;41.326;19.826;2023-06-22T12:22:37;9.77;;;7.47;;
11964;SDS011;6042;41.326;19.826;2023-06-22T12:25:06;12.35;;;7.57;;
11964;SDS011;6042;41.326;19.826;2023-06-22T12:27:35;8.60;;;7.40;;
11964;SDS011;6042;41.326;19.826;2023-06-22T12:30:04;9.15;;;8.18;;
11964;SDS011;6042;41.326;19.826;2023-06-22T12:32:33;7.85;;;7.10;;
11964;SDS011;6042;41.326;19.826;2023-06-22T12:35:01;8.13;;;7.32;;
11964;SDS011;6042;41.326;19.826;2023-06-22T12:37:32;9.13;;;7.50;;
11964;SDS011;6042;41.326;19.826;2023-06-22T12:40:00;9.07;;;8.07;;
11964;SDS011;6042;41.326;19.826;2023-06-22T12:42:30;10.50;;;8.40;;
11964;SDS011;6042;41.326;19.826;2023-06-22T12:44:58;8.65;;;7.53;;
11964;SDS011;6042;41.326;19.826;2023-06-22T12:47:27;8.45;;;7.75;;
11964;SDS011;6042;41.326;19.826;2023-06-22T12:49:55;8.82;;;8.00;;
11964;SDS011;6042;41.326;19.826;2023-06-22T12:52:23;8.43;;;7.60;;
11964;SDS011;6042;41.326;19.826;2023-06-22T12:54:54;9.63;;;8.38;;
11964;SDS011;6042;41.326;19.826;2023-06-22T12:57:22;11.00;;;7.70;;
11964;SDS011;6042;41.326;19.826;2023-06-22T12:59:52;11.30;;;10.07;;
11964;SDS011;6042;41.326;19.826;2023-06-22T13:02:20;8.77;;;7.93;;
11964;SDS011;6042;41.326;19.826;2023-06-22T13:04:49;7.82;;;7.03;;
11964;SDS011;6042;41.326;19.826;2023-06-22T13:07:17;8.43;;;7.50;;
11964;SDS011;6042;41.326;19.826;2023-06-22T13:09:49;7.32;;;6.63;;
11964;SDS011;6042;41.326;19.826;2023-06-22T13:12:20;8.32;;;7.50;;
11964;SDS011;6042;41.326;19.826;2023-06-22T13:14:49;8.98;;;7.43;;
11964;SDS011;6042;41.326;19.826;2023-06-22T13:17:18;10.40;;;7.13;;
11964;SDS011;6042;41.326;19.826;2023-06-22T13:19:47;10.18;;;7.35;;
11964;SDS011;6042;41.326;19.826;2023-06-22T13:22:28;7.53;;;6.88;;
11964;SDS011;6042;41.326;19.826;2023-06-22T13:24:59;9.63;;;7.32;;
11964;SDS011;6042;41.326;19.826;2023-06-22T13:27:30;7.80;;;7.00;;
11964;SDS011;6042;41.326;19.826;2023-06-22T13:29:58;12.38;;;7.20;;
11964;SDS011;6042;41.326;19.826;2023-06-22T13:32:27;7.55;;;6.80;;
11964;SDS011;6042;41.326;19.826;2023-06-22T13:34:55;7.70;;;7.10;;
11964;SDS011;6042;41.326;19.826;2023-06-22T13:37:25;9.23;;;6.85;;
11964;SDS011;6042;41.326;19.826;2023-06-22T13:39:53;11.77;;;7.20;;
11964;SDS011;6042;41.326;19.826;2023-06-22T13:42:23;7.93;;;6.63;;
11964;SDS011;6042;41.326;19.826;2023-06-22T13:44:53;10.43;;;7.15;;
11964;SDS011;6042;41.326;19.826;2023-06-22T13:47:22;7.15;;;6.50;;
11964;SDS011;6042;41.326;19.826;2023-06-22T13:49:50;7.20;;;6.10;;
11964;SDS011;6042;41.326;19.826;2023-06-22T13:52:19;6.97;;;6.38;;
11964;SDS011;6042;41.326;19.826;2023-06-22T13:54:47;7.07;;;6.43;;
11964;SDS011;6042;41.326;19.826;2023-06-22T13:57:16;6.75;;;6.20;;
11964;SDS011;6042;41.326;19.826;2023-06-22T13:59:44;7.05;;;6.47;;
11964;SDS011;6042;41.326;19.826;2023-06-22T14:02:14;8.63;;;6.57;;
11964;SDS011;6042;41.326;19.826;2023-06-22T14:04:43;9.88;;;6.55;;
11964;SDS011;6042;41.326;19.826;2023-06-22T14:07:13;8.10;;;7.30;;
11964;SDS011;6042;41.326;19.826;2023-06-22T14:09:42;7.25;;;6.18;;
11964;SDS011;6042;41.326;19.826;2023-06-22T14:12:11;7.32;;;6.10;;
11964;SDS011;6042;41.326;19.826;2023-06-22T14:14:40;8.32;;;6.30;;
11964;SDS011;6042;41.326;19.826;2023-06-22T14:17:08;9.65;;;6.40;;
11964;SDS011;6042;41.326;19.826;2023-06-22T14:19:38;7.03;;;6.40;;
11964;SDS011;6042;41.326;19.826;2023-06-22T14:22:06;7.57;;;5.82;;
11964;SDS011;6042;41.326;19.826;2023-06-22T14:24:35;7.43;;;6.40;;
11964;SDS011;6042;41.326;19.826;2023-06-22T14:27:03;6.53;;;5.88;;
11964;SDS011;6042;41.326;19.826;2023-06-22T14:29:35;10.80;;;6.93;;
11964;SDS011;6042;41.326;19.826;2023-06-22T14:32:03;7.88;;;6.07;;
11964;SDS011;6042;41.326;19.826;2023-06-22T14:34:34;11.52;;;6.10;;
11964;SDS011;6042;41.326;19.826;2023-06-22T14:37:08;6.80;;;6.30;;
11964;SDS011;6042;41.326;19.826;2023-06-22T14:39:36;7.28;;;6.63;;
11964;SDS011;6042;41.326;19.826;2023-06-22T14:42:06;6.93;;;6.40;;
11964;SDS011;6042;41.326;19.826;2023-06-22T14:44:34;7.50;;;6.13;;
11964;SDS011;6042;41.326;19.826;2023-06-22T14:47:03;7.50;;;6.63;;
11964;SDS011;6042;41.326;19.826;2023-06-22T14:49:32;8.85;;;6.85;;
11964;SDS011;6042;41.326;19.826;2023-06-22T14:52:02;11.65;;;6.82;;
11964;SDS011;6042;41.326;19.826;2023-06-22T14:54:32;10.98;;;6.57;;
11964;SDS011;6042;41.326;19.826;2023-06-22T14:57:01;7.45;;;6.75;;